Time;durP1;ratioP1;P1;durP2;ratioP2;P2;SDS_P1;SDS_P2;PMS_P1;PMS_P2;Temp;Humidity;BMP_temperature;BMP_pressure;BME280_temperature;BME280_humidity;BME280_pressure;Samples;Min_cycle;Max_cycle;Signal;HPM_P1;HPM_P2
2022/12/07 00:01:40;;;;;;;18.60;11.48;;;;;;;3.16;100.00;101618.94;5044724;28;20044;-51
2022/12/07 00:04:13;;;;;;;17.20;11.15;;;;;;;3.18;100.00;101619.75;5050955;28;20044;-48
2022/12/07 00:06:44;;;;;;;19.88;11.93;;;;;;;3.18;100.00;101619.75;5053550;28;20520;-51
2022/12/07 00:09:15;;;;;;;16.27;9.93;;;;;;;3.21;100.00;101617.06;5056730;28;20570;-52
2022/12/07 00:11:44;;;;;;;15.20;9.63;;;;;;;3.19;100.00;101616.25;5056803;28;20045;-53
2022/12/07 00:14:15;;;;;;;15.00;9.75;;;;;;;3.18;100.00;101617.13;5056660;28;20518;-51
2022/12/07 00:16:44;;;;;;;14.02;8.63;;;;;;;3.14;100.00;101625.91;5057525;28;20049;-56
2022/12/07 00:19:14;;;;;;;14.70;8.85;;;;;;;3.10;100.00;101618.22;5053103;28;20052;-56
2022/12/07 00:21:43;;;;;;;12.88;8.18;;;;;;;3.05;100.00;101620.88;5053487;28;20045;-56
2022/12/07 00:24:13;;;;;;;16.08;8.43;;;;;;;3.02;100.00;101616.59;5054858;28;20536;-55
2022/12/07 00:26:42;;;;;;;12.68;8.45;;;;;;;3.01;100.00;101614.03;5052552;28;20171;-55
2022/12/07 00:29:15;;;;;;;12.98;7.45;;;;;;;2.98;100.00;101614.97;5052882;28;20053;-56
2022/12/07 00:31:43;;;;;;;13.32;7.78;;;;;;;3.00;100.00;101617.53;5051218;28;20434;-56
2022/12/07 00:34:15;;;;;;;14.45;8.20;;;;;;;2.91;100.00;101612.53;5052713;28;20102;-56
2022/12/07 00:36:43;;;;;;;17.58;8.63;;;;;;;2.89;100.00;101609.97;5053140;28;20384;-56
2022/12/07 00:39:13;;;;;;;12.90;8.75;;;;;;;2.85;100.00;101606.59;5054502;28;20148;-56
2022/12/07 00:41:41;;;;;;;17.10;8.63;;;;;;;2.81;100.00;101606.66;5055722;28;20045;-54
2022/12/07 00:44:10;;;;;;;14.32;8.15;;;;;;;2.77;100.00;101608.47;5056256;28;20045;-55
2022/12/07 00:46:38;;;;;;;16.17;8.52;;;;;;;2.72;100.00;101607.72;5055197;28;20057;-56
2022/12/07 00:49:06;;;;;;;12.88;8.43;;;;;;;2.70;100.00;101607.75;5052982;28;20124;-55
2022/12/07 00:51:34;;;;;;;14.50;7.78;;;;;;;2.73;100.00;101604.25;5053530;28;20040;-54
2022/12/07 00:54:06;;;;;;;12.10;8.20;;;;;;;2.66;100.00;101602.66;5054350;28;20053;-56
2022/12/07 00:56:35;;;;;;;16.63;8.98;;;;;;;2.60;100.00;101595.81;5055940;28;20071;-55
2022/12/07 00:59:05;;;;;;;15.25;8.05;;;;;;;2.59;100.00;101595.84;5052694;28;20099;-56
2022/12/07 01:01:37;;;;;;;11.38;7.47;;;;;;;2.52;100.00;101590.78;5049978;28;20159;-56
2022/12/07 01:04:06;;;;;;;15.35;7.80;;;;;;;2.51;100.00;101594.28;5052337;28;20476;-56
2022/12/07 01:06:34;;;;;;;15.40;8.15;;;;;;;2.51;100.00;101591.69;5053914;28;20048;-55
2022/12/07 01:09:04;;;;;;;15.35;8.18;;;;;;;2.49;100.00;101595.19;5052140;28;20076;-55
2022/12/07 01:11:33;;;;;;;12.63;7.30;;;;;;;2.46;100.00;101595.25;5051213;28;20056;-56
2022/12/07 01:14:02;;;;;;;13.95;8.30;;;;;;;2.39;100.00;101586.72;5051935;28;20455;-56
2022/12/07 01:16:33;;;;;;;14.38;7.53;;;;;;;2.39;100.00;101593.63;5050182;28;20076;-56
2022/12/07 01:19:04;;;;;;;13.88;7.85;;;;;;;2.27;100.00;101597.34;5052385;28;20052;-56
2022/12/07 01:21:37;;;;;;;16.10;8.25;;;;;;;2.26;100.00;101600.81;5053968;28;20045;-56
2022/12/07 01:24:08;;;;;;;16.02;8.13;;;;;;;2.32;100.00;101603.31;5051741;28;20522;-56
2022/12/07 01:26:36;;;;;;;11.45;7.50;;;;;;;2.29;100.00;101603.34;5051012;28;20057;-56
2022/12/07 01:29:06;;;;;;;13.20;8.55;;;;;;;2.27;100.00;101610.31;5051855;28;20072;-57
2022/12/07 01:31:34;;;;;;;14.50;8.10;;;;;;;2.20;100.00;101607.81;5051496;28;20045;-57
2022/12/07 01:34:03;;;;;;;13.93;8.40;;;;;;;2.20;100.00;101607.81;5054645;28;20056;-57
2022/12/07 01:36:35;;;;;;;15.70;8.93;;;;;;;2.15;100.00;101609.63;5051208;28;20434;-57
2022/12/07 01:39:05;;;;;;;14.10;8.18;;;;;;;2.16;100.00;101615.69;5052376;28;20044;-58
2022/12/07 01:41:36;;;;;;;15.68;8.95;;;;;;;2.08;100.00;101610.63;5054742;28;20047;-58
2022/12/07 01:44:15;;;;;;;14.60;7.85;;;;;;;2.07;100.00;101611.50;5052402;28;20044;-58
2022/12/07 01:46:45;;;;;;;13.57;7.60;;;;;;;2.03;100.00;101605.53;5049679;28;20049;-58
2022/12/07 01:49:18;;;;;;;13.05;8.20;;;;;;;2.02;100.00;101600.38;5051200;28;20424;-58
2022/12/07 01:51:49;;;;;;;18.20;8.05;;;;;;;1.99;100.00;101597.81;5052651;28;20110;-58
2022/12/07 01:54:18;;;;;;;14.65;8.43;;;;;;;1.97;100.00;101590.06;5054883;28;20048;-58
2022/12/07 01:56:52;;;;;;;14.18;7.80;;;;;;;1.99;100.00;101595.22;5054958;28;20049;-58
2022/12/07 01:59:25;;;;;;;15.48;8.60;;;;;;;1.96;100.00;101590.94;5049527;28;20049;-58
2022/12/07 02:01:54;;;;;;;;;;;;;;;1.99;100.00;101595.22;5050922;28;20049;-58
2022/12/07 02:04:23;;;;;;;14.35;7.55;;;;;;;2.00;100.00;101594.34;5054433;28;20387;-58
2022/12/07 02:06:52;;;;;;;16.25;7.18;;;;;;;1.92;100.00;101596.22;5054334;28;20098;-58
2022/12/07 02:09:20;;;;;;;13.45;7.63;;;;;;;1.89;100.00;101591.09;5054395;28;20049;-58
2022/12/07 02:11:49;;;;;;;12.05;7.88;;;;;;;1.84;100.00;101592.00;5050950;28;20053;-58
2022/12/07 02:14:18;;;;;;;12.82;7.97;;;;;;;1.80;100.00;101587.75;5051957;28;20086;-58
2022/12/07 02:17:02;;;;;;;12.73;7.65;;;;;;;1.77;100.00;101587.81;5054329;28;20060;-58
2022/12/07 02:20:11;;;;;;;14.95;7.75;;;;;;;1.76;100.00;101583.50;5054184;28;20045;-59
2022/12/07 02:23:13;;;;;;;14.63;7.80;;;;;;;1.73;100.00;101593.06;5064944;28;20053;-58
2022/12/07 02:26:07;;;;;;;13.10;7.47;;;;;;;1.72;100.00;101591.34;5050214;28;20053;-58
2022/12/07 02:28:38;;;;;;;16.30;8.40;;;;;;;1.67;100.00;101596.63;5043822;28;20099;-58
2022/12/07 02:31:13;;;;;;;12.82;7.38;;;;;;;1.63;100.00;101600.16;5049479;28;20327;-59
2022/12/07 02:33:46;;;;;;;13.40;7.47;;;;;;;1.64;100.00;101596.69;5052445;28;20049;-58
2022/12/07 02:36:22;;;;;;;14.02;7.70;;;;;;;1.59;100.00;101601.06;5053956;28;20095;-58
2022/12/07 02:38:57;;;;;;;16.10;8.30;;;;;;;1.51;100.00;101602.06;5053334;28;20045;-58
2022/12/07 02:41:30;;;;;;;14.20;8.18;;;;;;;1.45;100.00;101599.53;5049486;28;20041;-58
2022/12/07 02:44:01;;;;;;;11.80;7.38;;;;;;;1.42;100.00;101594.41;5050571;28;20041;-58
2022/12/07 02:46:34;;;;;;;12.82;7.65;;;;;;;1.45;100.00;101599.53;5050148;28;20403;-58
2022/12/07 02:49:03;;;;;;;15.55;7.72;;;;;;;1.42;100.00;101598.72;5050396;28;20056;-58
2022/12/07 02:51:33;;;;;;;11.93;6.97;;;;;;;1.35;100.00;101590.22;5053150;28;20045;-58
2022/12/07 02:54:02;;;;;;;11.95;7.10;;;;;;;1.33;100.00;101592.78;5054171;28;20052;-58
2022/12/07 02:56:39;;;;;;;11.75;7.32;;;;;;;1.33;100.00;101586.75;5053539;28;20110;-58
2022/12/07 02:59:23;;;;;;;15.13;7.85;;;;;;;1.30;100.00;101587.66;5049250;28;20045;-58
2022/12/07 03:02:07;;;;;;;12.65;7.32;;;;;;;1.28;100.00;101591.16;5050853;28;20060;-58
2022/12/07 03:04:46;;;;;;;11.18;6.70;;;;;;;1.29;100.00;101592.88;5049702;28;20469;-58
2022/12/07 03:07:24;;;;;;;15.40;7.70;;;;;;;1.26;100.00;101595.50;5051531;28;20056;-58
2022/12/07 03:10:00;;;;;;;14.52;7.10;;;;;;;1.27;100.00;101599.78;5052913;28;20091;-57
2022/12/07 03:12:34;;;;;;;12.63;6.78;;;;;;;1.23;100.00;101595.53;5051788;28;20140;-58
2022/12/07 03:15:08;;;;;;;14.90;7.40;;;;;;;1.19;100.00;101592.16;5048813;28;20051;-58
2022/12/07 03:17:42;;;;;;;13.43;7.10;;;;;;;1.22;100.00;101601.63;5051157;28;20053;-58
2022/12/07 03:20:17;;;;;;;12.60;6.88;;;;;;;1.23;100.00;101598.13;5052865;28;20045;-58
2022/12/07 03:22:48;;;;;;;16.00;7.25;;;;;;;1.23;100.00;101592.94;5052850;28;20052;-53
2022/12/07 03:25:18;;;;;;;14.32;7.32;;;;;;;1.26;100.00;101592.94;5052627;28;20095;-51
2022/12/07 03:27:53;;;;;;;13.68;7.47;;;;;;;1.29;100.00;101595.47;5051221;28;20107;-53
2022/12/07 03:30:23;;;;;;;13.02;6.80;;;;;;;1.27;100.00;101584.25;5052499;28;20128;-51
2022/12/07 03:32:59;;;;;;;13.35;6.97;;;;;;;1.31;100.00;101589.38;5052322;28;20099;-53
2022/12/07 03:35:32;;;;;;;14.65;7.82;;;;;;;1.37;100.00;101588.44;5052481;28;20041;-51
2022/12/07 03:38:15;;;;;;;12.07;8.05;;;;;;;1.40;100.00;101588.38;5051666;28;20143;-49
2022/12/07 03:40:49;;;;;;;13.27;7.07;;;;;;;1.43;100.00;101579.69;5052502;28;20048;-52
2022/12/07 03:43:19;;;;;;;16.38;7.25;;;;;;;1.47;100.00;101571.88;5052462;28;20057;-52
2022/12/07 03:45:59;;;;;;;13.73;7.20;;;;;;;1.49;100.00;101571.84;5052047;28;20106;-50
2022/12/07 03:48:36;;;;;;;13.75;7.78;;;;;;;1.48;100.00;101568.38;5048542;28;20049;-52
2022/12/07 03:51:16;;;;;;;15.25;7.85;;;;;;;1.48;100.00;101568.38;5050746;28;20496;-51
2022/12/07 03:53:50;;;;;;;14.73;6.45;;;;;;;1.51;100.00;101570.06;5052422;28;20072;-50
2022/12/07 03:56:19;;;;;;;14.82;6.95;;;;;;;1.53;100.00;101570.91;5052542;28;20425;-54
2022/12/07 03:58:47;;;;;;;13.95;7.10;;;;;;;1.55;100.00;101573.47;5052411;28;20053;-54
2022/12/07 04:01:15;;;;;;;13.95;6.75;;;;;;;1.58;100.00;101569.09;5050270;28;20128;-50
2022/12/07 04:03:45;;;;;;;14.90;6.47;;;;;;;1.62;100.00;101570.78;5049145;28;20052;-49
2022/12/07 04:06:13;;;;;;;11.80;6.10;;;;;;;1.61;100.00;101579.44;5051346;28;20044;-52
2022/12/07 04:08:42;;;;;;;15.55;6.00;;;;;;;1.62;100.00;101568.19;5048645;28;20037;-52
2022/12/07 04:11:10;;;;;;;11.00;5.90;;;;;;;1.67;100.00;101562.91;5049805;28;20049;-52
2022/12/07 04:16:20;;;;;;;11.32;5.95;;;;;;;1.72;100.00;101558.50;5052101;28;20095;-52
2022/12/07 04:18:49;;;;;;;12.82;5.90;;;;;;;1.73;100.00;101565.38;5050752;28;20048;-58
2022/12/07 04:21:17;;;;;;;11.10;5.65;;;;;;;1.73;100.00;101562.78;5048763;28;20381;-58
2022/12/07 04:23:46;;;;;;;12.05;5.88;;;;;;;1.74;100.00;101561.91;5049598;28;20048;-58
2022/12/07 04:26:14;;;;;;;9.68;4.80;;;;;;;1.72;100.00;101563.69;5051846;28;20080;-58
2022/12/07 04:28:42;;;;;;;13.52;5.57;;;;;;;1.73;100.00;101561.94;5047848;28;20111;-58
2022/12/07 04:31:10;;;;;;;11.52;4.97;;;;;;;1.72;100.00;101563.69;5049091;28;20859;-58
2022/12/07 04:33:38;;;;;;;11.02;4.70;;;;;;;1.70;100.00;101557.66;5051554;28;20072;-58
2022/12/07 04:36:08;;;;;;;11.85;4.80;;;;;;;1.66;100.00;101569.84;5052220;28;20041;-59
2022/12/07 04:38:36;;;;;;;11.88;4.78;;;;;;;1.69;100.00;101567.19;5050338;28;20053;-58
2022/12/07 04:41:06;;;;;;;9.80;4.40;;;;;;;1.72;100.00;101563.69;5048862;28;20053;-57
2022/12/07 04:43:35;;;;;;;12.10;4.85;;;;;;;1.73;100.00;101567.97;5046509;28;20045;-58
2022/12/07 04:46:03;;;;;;;10.48;4.75;;;;;;;1.71;100.00;101572.34;5048637;28;20045;-58
2022/12/07 04:48:31;;;;;;;10.35;5.25;;;;;;;1.74;100.00;101577.47;5047776;28;20057;-58
2022/12/07 04:50:59;;;;;;;11.15;4.88;;;;;;;1.72;100.00;101573.19;5052045;28;20051;-58
2022/12/07 04:53:29;;;;;;;14.50;4.30;;;;;;;1.71;100.00;101563.72;5051475;28;20152;-58
2022/12/07 04:55:57;;;;;;;12.90;4.75;;;;;;;1.70;100.00;101549.88;5054380;28;20146;-58
2022/12/07 04:58:25;;;;;;;11.55;5.38;;;;;;;1.74;100.00;101548.09;5055373;28;20150;-57
2022/12/07 05:00:55;;;;;;;10.30;4.40;;;;;;;1.75;100.00;101545.47;5052384;28;20099;-58
2022/12/07 05:03:23;;;;;;;10.52;5.13;;;;;;;1.76;100.00;101552.38;5051481;28;20045;-58
2022/12/07 05:05:51;;;;;;;11.57;5.15;;;;;;;1.77;100.00;101548.91;5053669;28;20041;-57
2022/12/07 05:08:19;;;;;;;13.90;4.75;;;;;;;1.78;100.00;101550.59;5055306;28;20048;-57
2022/12/07 05:10:51;;;;;;;15.68;5.40;;;;;;;1.78;100.00;101550.59;5052241;28;20040;-58
2022/12/07 05:13:19;;;;;;;16.98;5.35;;;;;;;1.78;100.00;101547.16;5050736;28;20044;-57
2022/12/07 05:15:48;;;;;;;10.82;5.30;;;;;;;1.74;100.00;101561.06;5054068;28;20518;-58
2022/12/07 05:18:18;;;;;;;11.02;4.63;;;;;;;1.73;100.00;101546.38;5051556;28;20037;-58
2022/12/07 05:20:47;;;;;;;13.13;5.35;;;;;;;1.69;100.00;101549.03;5051881;28;20147;-58
2022/12/07 05:23:15;;;;;;;10.18;4.63;;;;;;;1.70;100.00;101552.47;5053780;28;20500;-58
2022/12/07 05:25:43;;;;;;;8.25;4.57;;;;;;;1.65;100.00;101549.97;5054936;28;20053;-59
2022/12/07 05:28:12;;;;;;;9.45;4.75;;;;;;;1.62;100.00;101546.56;5054895;28;20065;-58
2022/12/07 05:30:40;;;;;;;11.88;4.63;;;;;;;1.53;100.00;101544.97;5053414;28;20049;-59
2022/12/07 05:33:08;;;;;;;10.05;4.10;;;;;;;1.54;100.00;101545.81;5052050;28;20049;-49
2022/12/07 05:35:37;;;;;;;10.60;4.15;;;;;;;1.54;100.00;101561.38;5051559;28;20404;-51
2022/12/07 05:38:06;;;;;;;12.00;4.20;;;;;;;1.52;100.00;101558.81;5054204;28;20049;-58
2022/12/07 05:40:34;;;;;;;8.15;4.38;;;;;;;1.50;100.00;101553.66;5051261;28;20099;-57
2022/12/07 05:43:02;;;;;;;10.10;4.50;;;;;;;1.48;100.00;101552.81;5052480;28;20118;-58
2022/12/07 05:45:33;;;;;;;10.15;4.50;;;;;;;1.43;100.00;101554.66;5054763;28;20055;-58
2022/12/07 05:48:01;;;;;;;10.88;4.95;;;;;;;1.43;100.00;101552.06;5054610;28;20428;-58
2022/12/07 05:50:29;;;;;;;12.10;5.00;;;;;;;1.41;100.00;101556.41;5051519;28;20049;-58
2022/12/07 05:52:57;;;;;;;11.00;4.78;;;;;;;1.37;100.00;101559.06;5050266;28;20052;-58
2022/12/07 05:55:25;;;;;;;10.48;4.22;;;;;;;1.35;100.00;101556.50;5050982;28;20052;-58
2022/12/07 06:00:37;;;;;;;10.55;4.32;;;;;;;1.35;100.00;101559.94;5049960;28;21146;-58
2022/12/07 06:03:05;;;;;;;9.52;4.40;;;;;;;1.35;100.00;101559.09;5050972;28;20131;-50
2022/12/07 06:05:33;;;;;;;9.20;4.40;;;;;;;1.30;100.00;101553.97;5054333;28;20098;-50
2022/12/07 06:08:01;;;;;;;10.80;4.07;;;;;;;1.28;100.00;101547.09;5054331;28;20080;-51
2022/12/07 06:10:32;;;;;;;11.60;4.23;;;;;;;1.27;100.00;101547.97;5054452;28;20114;-48
2022/12/07 06:13:00;;;;;;;11.50;4.32;;;;;;;1.27;100.00;101545.38;5054093;28;20149;-50
2022/12/07 06:15:28;;;;;;;7.00;3.60;;;;;;;1.23;100.00;101543.72;5053861;28;20041;-50
2022/12/07 06:17:58;;;;;;;9.88;4.38;;;;;;;1.19;100.00;101550.69;5054136;28;20094;-48
2022/12/07 06:20:28;;;;;;;11.57;4.22;;;;;;;1.21;100.00;101553.25;5054001;28;20044;-51
2022/12/07 06:22:56;;;;;;;8.30;4.22;;;;;;;1.20;100.00;101549.81;5054013;28;20098;-50
2022/12/07 06:25:24;;;;;;;10.68;4.43;;;;;;;1.18;100.00;101548.97;5054131;28;20505;-52
2022/12/07 06:27:55;;;;;;;7.32;3.70;;;;;;;1.17;100.00;101548.13;5053622;28;20052;-53
2022/12/07 06:30:23;;;;;;;10.63;4.32;;;;;;;1.20;100.00;101556.72;5053815;28;20106;-51
2022/12/07 06:32:51;;;;;;;9.10;4.13;;;;;;;1.12;100.00;101549.06;5053951;28;20056;-52
2022/12/07 06:35:20;;;;;;;9.77;4.50;;;;;;;1.10;100.00;101551.66;5053722;28;20044;-50
2022/12/07 06:37:49;;;;;;;9.80;4.70;;;;;;;1.06;100.00;101552.59;5050444;28;20049;-59
2022/12/07 06:40:17;;;;;;;13.98;5.10;;;;;;;0.99;100.00;101554.41;5050103;28;20136;-51
2022/12/07 06:42:45;;;;;;;10.90;5.53;;;;;;;0.96;100.00;101553.59;5050336;28;20087;-58
2022/12/07 06:45:14;;;;;;;12.18;5.05;;;;;;;0.96;100.00;101551.88;5049353;28;20798;-57
2022/12/07 06:47:42;;;;;;;11.60;6.43;;;;;;;0.97;100.00;101556.16;5050282;28;20152;-58
2022/12/07 06:50:13;;;;;;;13.07;5.97;;;;;;;0.92;100.00;101557.13;5053562;28;20077;-58
2022/12/07 06:52:42;;;;;;;12.70;7.18;;;;;;;0.92;100.00;101557.97;5053035;28;20044;-58
2022/12/07 06:55:10;;;;;;;15.02;7.30;;;;;;;0.92;100.00;101557.13;5053244;28;20080;-58
2022/12/07 06:57:38;;;;;;;11.90;6.70;;;;;;;0.84;100.00;101560.66;5053247;28;20045;-58
2022/12/07 07:00:08;;;;;;;12.95;6.40;;;;;;;0.84;100.00;101559.81;5053108;28;20056;-58
2022/12/07 07:02:36;;;;;;;11.30;5.07;;;;;;;0.74;100.00;101561.66;5050809;28;20053;-58
2022/12/07 07:05:04;;;;;;;11.43;4.60;;;;;;;0.72;100.00;101565.97;5049461;28;20048;-58
2022/12/07 07:07:33;;;;;;;9.13;4.65;;;;;;;0.78;100.00;101562.50;5048864;28;20073;-58
2022/12/07 07:10:22;;;;;;;10.25;4.47;;;;;;;0.78;100.00;101560.75;5053007;28;20053;-58
2022/12/07 07:12:50;;;;;;;10.60;4.25;;;;;;;0.81;100.00;101552.94;5049596;28;20040;-58
2022/12/07 07:15:24;;;;;;;7.18;4.13;;;;;;;0.82;100.00;101562.41;5048936;28;20052;-58
2022/12/07 07:17:52;;;;;;;9.80;4.38;;;;;;;0.83;100.00;101558.09;5049944;28;20053;-58
2022/12/07 07:20:20;;;;;;;8.50;4.00;;;;;;;0.83;100.00;101564.13;5049017;28;20072;-58
2022/12/07 07:22:49;;;;;;;13.55;4.40;;;;;;;0.87;100.00;101566.69;5048843;28;20433;-58
2022/12/07 07:25:17;;;;;;;10.02;4.30;;;;;;;0.83;100.00;101561.53;5049100;28;20566;-58
2022/12/07 07:27:49;;;;;;;8.05;4.03;;;;;;;0.81;100.00;101567.63;5047549;28;20057;-58
2022/12/07 07:30:17;;;;;;;8.85;4.00;;;;;;;0.75;100.00;101565.97;5051490;28;20052;-58
2022/12/07 07:32:46;;;;;;;8.60;4.32;;;;;;;0.72;100.00;101565.13;5052565;28;20048;-58
2022/12/07 07:35:14;;;;;;;10.40;4.68;;;;;;;0.68;100.00;101564.31;5049866;28;20120;-59
2022/12/07 07:37:42;;;;;;;12.40;5.00;;;;;;;0.64;100.00;101573.00;5048194;28;20056;-58
2022/12/07 07:40:11;;;;;;;11.25;4.60;;;;;;;0.59;100.00;101564.44;5049449;28;20053;-57
2022/12/07 07:42:40;;;;;;;7.50;4.15;;;;;;;0.59;100.00;101569.63;5051880;28;20446;-58
2022/12/07 07:45:11;;;;;;;13.75;4.00;;;;;;;0.52;100.00;101570.56;5052581;28;20040;-58
2022/12/07 07:47:39;;;;;;;12.13;4.22;;;;;;;0.51;100.00;101572.28;5051681;28;20041;-58
2022/12/07 07:50:08;;;;;;;6.85;3.50;;;;;;;0.51;100.00;101567.13;5049480;28;20110;-58
2022/12/07 07:52:36;;;;;;;12.43;4.47;;;;;;;0.54;100.00;101567.06;5048792;28;20048;-58
2022/12/07 07:55:08;;;;;;;8.30;4.00;;;;;;;0.52;100.00;101570.56;5049214;28;20087;-59
2022/12/07 07:57:36;;;;;;;9.65;3.75;;;;;;;0.51;100.00;101572.28;5048510;28;20073;-59
2022/12/07 08:00:08;;;;;;;8.23;3.95;;;;;;;0.53;100.00;101561.91;5048305;28;20165;-58
2022/12/07 08:02:38;;;;;;;8.20;3.67;;;;;;;0.51;100.00;101569.72;5047759;28;20064;-58
2022/12/07 08:05:07;;;;;;;7.32;3.63;;;;;;;0.53;100.00;101575.72;5049689;28;20492;-58
2022/12/07 08:07:36;;;;;;;10.45;4.22;;;;;;;0.52;100.00;101568.84;5048328;28;20053;-58
2022/12/07 08:10:05;;;;;;;9.20;4.00;;;;;;;0.57;100.00;101573.94;5048570;28;20041;-58
2022/12/07 08:12:36;;;;;;;10.05;4.40;;;;;;;0.57;100.00;101576.53;5051509;28;20037;-59
2022/12/07 08:15:06;;;;;;;8.75;4.55;;;;;;;0.59;100.00;101582.56;5051977;28;20381;-58
2022/12/07 08:17:38;;;;;;;12.30;4.83;;;;;;;0.71;100.00;101582.41;5052447;28;20041;-58
2022/12/07 08:20:07;;;;;;;9.07;4.60;;;;;;;0.81;100.00;101586.59;5052585;28;20044;-58
2022/12/07 08:22:36;;;;;;;10.25;4.15;;;;;;;1.03;100.00;101588.91;5052275;28;20107;-58
2022/12/07 08:25:04;;;;;;;10.20;4.18;;;;;;;1.20;100.00;101590.41;5054889;28;20466;-59
2022/12/07 08:27:32;;;;;;;9.65;4.57;;;;;;;1.26;100.00;101588.59;5056027;28;20240;-59
2022/12/07 08:30:01;;;;;;;8.98;3.92;;;;;;;1.37;100.00;101591.03;5053778;28;20079;-58
2022/12/07 08:32:30;;;;;;;10.93;3.80;;;;;;;1.43;100.00;101588.34;5052233;28;20098;-58
2022/12/07 08:34:59;;;;;;;10.00;4.00;;;;;;;1.42;100.00;101601.31;5051817;28;20052;-57
2022/12/07 08:37:28;;;;;;;7.40;4.35;;;;;;;1.40;100.00;101598.75;5051291;28;20051;-57
2022/12/07 08:39:56;;;;;;;9.07;4.65;;;;;;;1.42;100.00;101599.59;5052963;28;20048;-57
2022/12/07 08:42:29;;;;;;;13.70;3.75;;;;;;;1.43;100.00;101598.72;5053365;28;20099;-58
2022/12/07 08:44:57;;;;;;;11.82;3.90;;;;;;;1.45;100.00;101603.88;5056355;28;20095;-57
2022/12/07 08:47:26;;;;;;;10.13;3.90;;;;;;;1.47;100.00;101597.78;5055899;28;20072;-58
2022/12/07 08:49:55;;;;;;;11.55;4.22;;;;;;;1.58;100.00;101588.97;5052165;28;20044;-57
2022/12/07 08:52:24;;;;;;;8.48;3.35;;;;;;;1.69;100.00;101584.47;5051974;28;20462;-57
2022/12/07 08:54:52;;;;;;;9.18;3.40;;;;;;;1.70;100.00;101575.81;5052388;28;20049;-57
2022/12/07 08:57:20;;;;;;;12.07;4.03;;;;;;;1.70;100.00;101581.00;5051607;28;20049;-56
2022/12/07 08:59:49;;;;;;;7.57;3.03;;;;;;;1.72;100.00;101587.03;5050596;28;20052;-57
2022/12/07 09:02:17;;;;;;;10.27;3.40;;;;;;;1.72;100.00;101584.44;5054428;28;20393;-56
2022/12/07 09:04:45;;;;;;;9.23;2.80;;;;;;;1.74;100.00;101590.44;5050866;28;20057;-57
2022/12/07 09:07:13;;;;;;;11.70;2.90;;;;;;;1.76;100.00;101582.63;5052082;28;20094;-57
2022/12/07 09:09:43;;;;;;;10.73;3.20;;;;;;;1.77;100.00;101590.41;5052991;28;20044;-57
2022/12/07 09:12:11;;;;;;;11.82;3.38;;;;;;;1.77;100.00;101589.53;5053056;28;20080;-57
2022/12/07 09:14:39;;;;;;;7.93;3.17;;;;;;;1.86;100.00;101585.03;5049704;28;20041;-57
2022/12/07 09:17:08;;;;;;;12.85;3.80;;;;;;;1.99;100.00;101585.72;5055352;28;20738;-58
2022/12/07 09:19:37;;;;;;;9.85;4.00;;;;;;;2.12;100.00;101582.91;5053924;28;20090;-57
2022/12/07 09:22:06;;;;;;;8.18;3.83;;;;;;;2.24;100.00;101587.03;5052369;28;20072;-57
2022/12/07 09:24:34;;;;;;;13.30;3.58;;;;;;;2.30;100.00;101584.28;5051189;28;20408;-57
2022/12/07 09:27:04;;;;;;;8.18;3.38;;;;;;;2.34;100.00;101588.53;5054262;28;20053;-57
2022/12/07 09:29:33;;;;;;;11.70;3.50;;;;;;;2.43;100.00;101590.13;5048891;28;20696;-58
2022/12/07 09:32:01;;;;;;;16.25;5.05;;;;;;;2.57;100.00;101587.25;5051980;28;20049;-57
2022/12/07 09:34:36;;;;;;;6.72;3.40;;;;;;;2.61;100.00;101592.34;5051558;28;20381;-58
2022/12/07 09:37:06;;;;;;;9.00;3.63;;;;;;;2.69;100.00;101592.19;5050918;28;20045;-58
2022/12/07 09:39:34;;;;;;;10.07;3.47;;;;;;;2.78;100.00;101589.41;5050995;28;20047;-58
2022/12/07 09:42:06;;;;;;;9.90;3.58;;;;;;;2.92;100.00;101589.13;5052142;28;20119;-58
2022/12/07 09:44:36;;;;;;;10.57;3.50;;;;;;;3.01;100.00;101594.13;5050779;28;20492;-58
2022/12/07 09:47:04;;;;;;;11.38;3.88;;;;;;;3.09;100.00;101585.31;5054767;28;20059;-58
2022/12/07 09:49:33;;;;;;;11.38;3.78;;;;;;;3.13;100.00;101584.34;5054649;28;20367;-58
2022/12/07 09:52:04;;;;;;;9.48;3.75;;;;;;;3.19;100.00;101584.19;5051412;28;20532;-57
2022/12/07 09:54:36;;;;;;;10.43;3.38;;;;;;;3.24;100.00;101582.34;5051117;28;20049;-58
2022/12/07 09:57:05;;;;;;;9.90;3.77;;;;;;;3.33;100.00;101589.09;5054410;28;20057;-58
2022/12/07 09:59:34;;;;;;;14.65;3.78;;;;;;;3.41;100.00;101575.91;5055087;28;20123;-57
2022/12/07 10:02:26;;;;;;;9.95;3.50;;;;;;;3.46;100.00;101574.91;5052133;28;20057;-58
2022/12/07 10:04:54;;;;;;;15.00;3.58;;;;;;;3.51;100.00;101572.22;5050850;28;20049;-58
2022/12/07 10:07:22;;;;;;;11.05;3.10;;;;;;;3.55;100.00;101572.09;5054514;28;20048;-58
2022/12/07 10:09:50;;;;;;;10.60;3.55;;;;;;;3.60;100.00;101572.00;5052909;28;20053;-58
2022/12/07 10:12:20;;;;;;;10.10;3.08;;;;;;;3.64;100.00;101572.75;5050498;28;20123;-57
2022/12/07 10:14:56;;;;;;;8.48;2.88;;;;;;;3.68;100.00;101569.19;5048082;28;20045;-57
2022/12/07 10:17:40;;;;;;;9.85;2.92;;;;;;;3.71;100.00;101569.97;5050486;28;20080;-57
2022/12/07 10:20:20;;;;;;;8.95;3.80;;;;;;;3.73;100.00;101567.31;5051479;28;20754;-57
2022/12/07 10:23:00;;;;;;;13.55;3.47;;;;;;;3.74;100.00;101566.44;5054383;28;20048;-56
2022/12/07 10:25:32;;;;;;;13.88;3.40;;;;;;;3.79;100.00;101561.97;5054134;28;20415;-57
2022/12/07 10:28:14;;;;;;;12.48;2.90;;;;;;;3.80;100.00;101553.25;5054002;28;20063;-57
2022/12/07 10:30:52;;;;;;;7.75;2.65;;;;;;;3.79;100.00;101555.91;5051197;28;20084;-57
2022/12/07 10:33:35;;;;;;;9.32;2.65;;;;;;;3.74;100.00;101553.44;5050224;28;20049;-57
2022/12/07 10:36:20;;;;;;;9.73;2.83;;;;;;;3.78;100.00;101544.66;5053385;28;20049;-57
2022/12/07 10:38:50;;;;;;;8.90;2.50;;;;;;;3.83;100.00;101541.91;5050423;28;20102;-57
2022/12/07 10:41:19;;;;;;;10.23;3.10;;;;;;;3.84;100.00;101539.28;5051725;28;20060;-57
2022/12/07 10:43:51;;;;;;;7.88;2.92;;;;;;;3.85;100.00;101543.59;5053855;28;20411;-57
2022/12/07 10:46:49;;;;;;;9.98;2.67;;;;;;;3.92;100.00;101530.44;5053977;28;20577;-58
2022/12/07 10:50:06;;;;;;;9.48;2.78;;;;;;;3.96;100.00;101543.31;5054332;28;20431;-58
2022/12/07 10:52:48;;;;;;;6.55;2.70;;;;;;;4.01;100.00;101543.22;5009003;28;20054;-57
2022/12/07 10:55:22;;;;;;;6.88;2.72;;;;;;;4.07;100.00;101541.28;5044406;28;20503;-57
2022/12/07 10:58:14;;;;;;;5.75;2.33;;;;;;;4.17;100.00;101531.50;5048973;28;20128;-57
2022/12/07 11:00:54;;;;;;;5.88;2.65;;;;;;;4.22;100.00;101521.78;5050600;28;20565;-57
2022/12/07 11:03:34;;;;;;;6.45;2.47;;;;;;;4.34;100.00;101527.56;5049768;28;20140;-57
2022/12/07 11:06:14;;;;;;;12.65;2.75;;;;;;;4.37;100.00;101520.50;5050330;28;20462;-57
2022/12/07 11:08:55;;;;;;;8.63;2.40;;;;;;;4.45;100.00;101512.47;5050149;28;20500;-56
2022/12/07 11:11:33;;;;;;;11.57;2.58;;;;;;;4.45;100.00;101515.06;5051422;28;20059;-57
2022/12/07 11:14:12;;;;;;;8.57;2.30;;;;;;;4.50;100.00;101513.19;5052530;28;20049;-57
2022/12/07 11:16:52;;;;;;;8.75;2.13;;;;;;;4.48;100.00;101514.97;5052176;28;20049;-57
2022/12/07 11:19:51;;;;;;;9.10;2.70;;;;;;;4.46;100.00;101513.31;5049357;28;20049;-57
2022/12/07 11:22:28;;;;;;;7.53;2.75;;;;;;;4.48;100.00;101514.97;5052523;28;20519;-57
2022/12/07 11:25:03;;;;;;;6.78;1.92;;;;;;;4.52;100.00;101511.38;5050071;28;20080;-57
2022/12/07 11:27:40;;;;;;;5.53;2.10;;;;;;;4.55;100.00;101506.09;5049140;28;20053;-57
2022/12/07 11:30:17;;;;;;;8.10;2.25;;;;;;;4.57;100.00;101501.69;5050184;28;20110;-57
2022/12/07 11:32:58;;;;;;;8.63;2.25;;;;;;;4.59;100.00;101499.03;5050378;28;20682;-57
2022/12/07 11:35:37;;;;;;;8.95;2.88;;;;;;;4.57;100.00;101493.88;5049414;28;20396;-57
2022/12/07 11:38:13;;;;;;;10.88;2.63;;;;;;;4.57;100.00;101488.66;5051898;28;20083;-57
2022/12/07 11:40:45;;;;;;;11.70;3.08;;;;;;;4.56;100.00;101489.56;5052830;28;20504;-58
2022/12/07 11:43:21;;;;;;;7.75;1.88;;;;;;;4.56;100.00;101484.34;5052805;28;20102;-57
2022/12/07 11:45:59;;;;;;;7.18;1.90;;;;;;;4.56;100.00;101486.94;5052893;28;20512;-57